createdAt,value
2022-12-28T00:01:54.411Z,97.86
2022-12-28T00:04:25.531Z,97.49
2022-12-28T00:06:54.040Z,97.53
2022-12-28T00:09:26.340Z,97.10
2022-12-28T00:11:54.645Z,96.48
2022-12-28T00:14:26.109Z,96.74
2022-12-28T00:16:54.381Z,97.07
2022-12-28T00:19:25.685Z,96.00
2022-12-28T00:21:55.273Z,96.28
2022-12-28T00:24:26.025Z,96.65
2022-12-28T00:26:56.638Z,96.85
2022-12-28T00:29:25.361Z,97.26
2022-12-28T00:31:53.718Z,97.32
2022-12-28T00:34:25.009Z,97.03
2022-12-28T00:37:09.574Z,97.07
2022-12-28T00:39:41.964Z,96.97
2022-12-28T00:42:11.237Z,97.00
2022-12-28T00:44:39.843Z,97.12
2022-12-28T00:47:08.635Z,97.15
2022-12-28T00:49:36.957Z,97.26
2022-12-28T00:52:05.639Z,97.04
2022-12-28T00:54:34.027Z,97.37
2022-12-28T00:57:06.460Z,96.87
2022-12-28T00:59:34.781Z,96.68
2022-12-28T01:02:09.729Z,96.51
2022-12-28T01:04:38.075Z,96.22
2022-12-28T01:07:06.362Z,96.76
2022-12-28T01:09:36.862Z,96.60
2022-12-28T01:12:05.511Z,96.26
2022-12-28T01:14:34.069Z,96.28
2022-12-28T01:17:09.538Z,96.30
2022-12-28T01:19:37.852Z,95.86
2022-12-28T01:22:06.359Z,96.56
2022-12-28T01:24:34.734Z,96.40
2022-12-28T01:27:17.351Z,96.14
2022-12-28T01:29:45.694Z,96.16
2022-12-28T01:32:14.040Z,96.80
2022-12-28T01:34:44.365Z,96.39
2022-12-28T01:37:21.147Z,96.80
2022-12-28T01:39:49.687Z,96.67
2022-12-28T01:42:23.360Z,97.08
2022-12-28T01:44:52.755Z,97.17
2022-12-28T01:47:37.173Z,97.54
2022-12-28T01:50:21.170Z,98.14
2022-12-28T01:52:53.808Z,97.93
2022-12-28T01:55:30.040Z,97.93
2022-12-28T01:58:01.007Z,97.75
2022-12-28T02:00:30.030Z,97.74
2022-12-28T02:03:12.233Z,97.85
2022-12-28T02:05:44.430Z,97.70
2022-12-28T02:08:19.836Z,97.85
2022-12-28T02:10:48.804Z,98.05
2022-12-28T02:13:18.528Z,98.29
2022-12-28T02:15:47.939Z,98.43
2022-12-28T02:18:23.385Z,98.24
2022-12-28T02:21:25.746Z,98.98
2022-12-28T02:24:27.211Z,98.89
2022-12-28T02:27:31.874Z,98.77
2022-12-28T02:30:08.883Z,98.58
2022-12-28T02:32:52.038Z,98.85
2022-12-28T02:35:29.451Z,98.92
2022-12-28T02:38:33.010Z,98.28
2022-12-28T02:41:19.942Z,97.89
2022-12-28T02:43:56.890Z,97.45
2022-12-28T02:46:52.312Z,97.01
2022-12-28T02:49:48.740Z,96.95
2022-12-28T02:52:53.806Z,96.22
2022-12-28T02:55:57.062Z,96.34
2022-12-28T02:58:40.150Z,96.37
2022-12-28T03:01:21.390Z,96.11
2022-12-28T03:04:21.827Z,95.28
2022-12-28T03:07:35.877Z,95.22
2022-12-28T03:10:26.027Z,95.58
2022-12-28T03:13:34.042Z,95.63
2022-12-28T03:16:36.001Z,96.09
2022-12-28T03:19:28.331Z,95.87
2022-12-28T03:22:19.314Z,96.53
2022-12-28T03:25:07.549Z,96.77
2022-12-28T03:27:56.853Z,96.98
2022-12-28T03:30:49.477Z,97.03
2022-12-28T03:33:17.907Z,96.85
2022-12-28T03:36:03.760Z,96.78
2022-12-28T03:38:46.008Z,96.13
2022-12-28T03:41:37.194Z,95.56
2022-12-28T03:44:17.380Z,95.35
2022-12-28T03:47:16.323Z,95.11
2022-12-28T03:49:44.707Z,94.83
2022-12-28T03:52:24.373Z,94.80
2022-12-28T03:55:01.130Z,94.85
2022-12-28T03:57:32.560Z,94.70
2022-12-28T04:00:00.447Z,94.76
2022-12-28T04:02:32.167Z,94.64
2022-12-28T04:05:00.546Z,94.60
2022-12-28T04:07:29.604Z,94.47
2022-12-28T04:09:57.822Z,94.45
2022-12-28T04:12:32.089Z,94.68
2022-12-28T04:15:00.465Z,94.73
2022-12-28T04:17:31.510Z,94.77
2022-12-28T04:20:02.440Z,95.01
2022-12-28T04:22:30.711Z,95.06
2022-12-28T04:25:01.936Z,95.66
2022-12-28T04:27:33.217Z,95.54
2022-12-28T04:30:01.483Z,95.03
2022-12-28T04:32:32.736Z,95.05
2022-12-28T04:35:01.032Z,94.54
2022-12-28T04:37:31.738Z,94.37
2022-12-28T04:40:00.437Z,94.04
2022-12-28T04:42:31.592Z,93.80
2022-12-28T04:45:02.800Z,93.49
2022-12-28T04:47:31.099Z,93.31
2022-12-28T04:50:01.670Z,93.05
2022-12-28T04:52:34.966Z,92.95
2022-12-28T04:55:03.288Z,92.66
2022-12-28T04:57:31.586Z,92.80
2022-12-28T05:00:02.841Z,92.58
2022-12-28T05:02:34.113Z,92.42
2022-12-28T05:05:02.514Z,92.91
2022-12-28T05:07:33.884Z,92.98
2022-12-28T05:10:02.113Z,93.31
2022-12-28T05:12:33.349Z,93.35
2022-12-28T05:15:01.616Z,93.26
2022-12-28T05:17:33.540Z,93.69
2022-12-28T05:20:02.066Z,93.90
2022-12-28T05:22:36.303Z,94.50
2022-12-28T05:25:15.170Z,95.21
2022-12-28T05:27:43.428Z,95.33
2022-12-28T05:30:28.327Z,95.46
2022-12-28T05:33:02.058Z,95.09
2022-12-28T05:35:33.337Z,94.87
2022-12-28T05:38:01.595Z,94.72
2022-12-28T05:40:34.274Z,94.35
2022-12-28T05:43:02.509Z,93.84
2022-12-28T05:45:33.660Z,93.37
2022-12-28T05:48:04.666Z,92.85
2022-12-28T05:50:32.926Z,92.64
2022-12-28T05:53:04.191Z,92.04
2022-12-28T05:55:32.398Z,92.08
2022-12-28T05:58:03.693Z,91.87
2022-12-28T06:00:32.000Z,91.69
2022-12-28T06:03:03.679Z,91.42
2022-12-28T06:05:32.143Z,90.83
2022-12-28T06:08:03.502Z,90.74
2022-12-28T06:10:34.829Z,90.57
2022-12-28T06:13:06.387Z,90.72
2022-12-28T06:15:34.233Z,90.88
2022-12-28T06:18:02.551Z,91.04
2022-12-28T06:20:34.007Z,91.07
2022-12-28T06:23:01.960Z,91.15
2022-12-28T06:25:32.863Z,91.24
2022-12-28T06:28:03.409Z,91.15
2022-12-28T06:30:34.483Z,91.28
2022-12-28T06:33:02.706Z,91.38
2022-12-28T06:35:34.013Z,91.22
2022-12-28T06:38:02.545Z,91.51
2022-12-28T06:41:02.531Z,91.70
2022-12-28T06:43:28.908Z,91.71
2022-12-28T06:46:07.690Z,91.93
2022-12-28T06:48:37.097Z,92.11
2022-12-28T06:51:17.356Z,92.09
2022-12-28T06:53:46.769Z,91.91
2022-12-28T06:56:32.775Z,92.08
2022-12-28T06:59:05.019Z,91.73
2022-12-28T07:01:41.873Z,91.85
2022-12-28T07:04:11.961Z,92.14
2022-12-28T07:06:43.047Z,92.20
2022-12-28T07:09:17.335Z,92.60
2022-12-28T07:11:46.222Z,92.35
2022-12-28T07:14:20.237Z,92.48
2022-12-28T07:16:49.757Z,92.84
2022-12-28T07:19:27.417Z,92.11
2022-12-28T07:22:04.569Z,92.46
2022-12-28T07:24:33.026Z,92.71
2022-12-28T07:27:04.401Z,92.45
2022-12-28T07:29:32.372Z,92.75
2022-12-28T07:32:01.890Z,92.03
2022-12-28T07:34:37.555Z,92.06
2022-12-28T07:37:05.841Z,92.06
2022-12-28T07:39:37.376Z,91.62
2022-12-28T07:42:07.779Z,92.45
2022-12-28T07:44:38.313Z,91.81
2022-12-28T07:47:07.002Z,92.35
2022-12-28T07:49:35.574Z,92.46
2022-12-28T07:52:04.023Z,92.88
2022-12-28T07:54:35.564Z,93.19
2022-12-28T07:57:05.728Z,95.20
2022-12-28T07:59:37.052Z,93.90
2022-12-28T08:02:05.565Z,94.10
2022-12-28T08:04:33.940Z,94.22
2022-12-28T08:07:05.411Z,94.56
2022-12-28T08:09:36.059Z,96.32
2022-12-28T08:12:04.529Z,95.22
2022-12-28T08:14:35.571Z,95.29
2022-12-28T08:17:04.141Z,95.33
2022-12-28T08:19:32.504Z,94.97
2022-12-28T08:22:03.876Z,95.47
2022-12-28T08:24:36.440Z,95.53
2022-12-28T08:27:07.218Z,95.67
2022-12-28T08:29:35.496Z,95.92
2022-12-28T08:32:06.947Z,95.74
2022-12-28T08:34:34.812Z,96.68
2022-12-28T08:37:03.238Z,96.01
2022-12-28T08:39:34.508Z,95.82
2022-12-28T08:42:05.598Z,95.79
2022-12-28T08:44:36.805Z,95.86
2022-12-28T08:47:05.250Z,95.75
2022-12-28T08:49:36.093Z,95.63
2022-12-28T08:52:08.467Z,95.45
2022-12-28T08:55:00.476Z,95.62
2022-12-28T08:57:33.727Z,96.02
2022-12-28T09:00:02.115Z,95.98
2022-12-28T09:02:38.030Z,96.21
2022-12-28T09:05:06.888Z,96.42
2022-12-28T09:07:37.893Z,96.83
2022-12-28T09:10:06.656Z,97.45
2022-12-28T09:12:37.491Z,97.55
2022-12-28T09:15:06.272Z,97.60
2022-12-28T09:17:36.902Z,97.99
2022-12-28T09:20:08.637Z,98.11
2022-12-28T09:22:39.301Z,97.84
2022-12-28T09:25:08.089Z,98.13
2022-12-28T09:27:39.251Z,97.85
2022-12-28T09:30:08.737Z,97.79
2022-12-28T09:32:37.010Z,98.25
2022-12-28T09:35:05.605Z,98.04
2022-12-28T09:37:37.213Z,98.02
2022-12-28T09:40:10.667Z,98.30
2022-12-28T09:42:47.598Z,98.41
2022-12-28T09:45:20.238Z,98.61
2022-12-28T09:48:04.352Z,98.63
2022-12-28T09:50:35.883Z,98.57
2022-12-28T09:53:06.847Z,99.85
2022-12-28T09:55:46.058Z,99.63
2022-12-28T09:58:19.329Z,99.53
2022-12-28T10:00:56.061Z,99.47
2022-12-28T10:03:30.238Z,99.47
2022-12-28T10:06:01.903Z,99.39
2022-12-28T10:08:33.470Z,100.00
2022-12-28T10:11:03.793Z,99.84
2022-12-28T10:13:56.898Z,99.86
2022-12-28T10:16:32.422Z,99.87
2022-12-28T10:19:09.101Z,99.93
2022-12-28T10:21:37.742Z,99.40
2022-12-28T10:27:00.476Z,99.47
2022-12-28T10:29:29.464Z,99.18
2022-12-28T10:32:07.463Z,99.24
2022-12-28T10:34:37.607Z,99.25
2022-12-28T10:37:16.119Z,99.72
2022-12-28T10:40:02.249Z,99.50
2022-12-28T10:42:36.407Z,98.93
2022-12-28T10:45:17.640Z,98.85
2022-12-28T10:47:49.935Z,98.75
2022-12-28T10:50:43.707Z,98.88
2022-12-28T10:53:21.697Z,98.95
2022-12-28T10:55:53.025Z,99.14
2022-12-28T10:58:31.300Z,99.13
2022-12-28T11:01:14.902Z,99.36
2022-12-28T11:04:06.983Z,98.97
2022-12-28T11:06:37.793Z,98.82
2022-12-28T11:09:17.607Z,98.91
2022-12-28T11:11:47.488Z,98.80
2022-12-28T11:14:38.872Z,99.19
2022-12-28T11:17:38.722Z,98.94
2022-12-28T11:20:37.392Z,98.90
2022-12-28T11:23:10.299Z,98.45
2022-12-28T11:25:38.865Z,98.36
2022-12-28T11:28:22.749Z,98.56
2022-12-28T11:30:57.800Z,98.82
2022-12-28T11:33:39.961Z,99.15
2022-12-28T11:36:16.374Z,99.20
2022-12-28T11:38:47.121Z,98.70
2022-12-28T11:41:36.196Z,98.52
2022-12-28T11:44:06.059Z,98.50
2022-12-28T11:46:38.659Z,98.76
2022-12-28T11:49:28.566Z,98.65
2022-12-28T11:52:18.415Z,98.80
2022-12-28T11:54:55.998Z,98.56
2022-12-28T11:57:40.687Z,98.72
2022-12-28T12:00:46.007Z,98.61
2022-12-28T12:03:14.418Z,98.77
2022-12-28T12:05:52.960Z,98.66
2022-12-28T12:08:24.364Z,98.76
2022-12-28T12:11:41.484Z,98.74
2022-12-28T12:14:10.047Z,98.82
2022-12-28T12:17:06.312Z,98.94
2022-12-28T12:19:39.049Z,98.89
2022-12-28T12:22:19.792Z,98.92
2022-12-28T12:24:59.732Z,98.88
2022-12-28T12:27:53.836Z,98.80
2022-12-28T12:30:26.828Z,98.46
2022-12-28T12:33:07.781Z,98.50
2022-12-28T12:35:51.100Z,98.83
2022-12-28T12:38:56.680Z,98.77
2022-12-28T12:41:58.023Z,98.71
2022-12-28T12:45:16.283Z,98.96
2022-12-28T12:48:17.784Z,98.91
2022-12-28T12:51:00.754Z,99.04
2022-12-28T12:53:32.128Z,99.74
2022-12-28T12:56:38.307Z,99.49
2022-12-28T12:59:26.881Z,99.40
2022-12-28T13:02:13.729Z,99.99
2022-12-28T13:04:46.998Z,99.39
2022-12-28T13:07:30.965Z,98.99
2022-12-28T13:10:07.444Z,98.50
2022-12-28T13:12:37.876Z,97.76
2022-12-28T13:15:12.528Z,96.73
2022-12-28T13:17:43.099Z,96.53
2022-12-28T13:20:25.075Z,96.64
2022-12-28T13:22:57.332Z,96.63
2022-12-28T13:25:35.184Z,96.84
2022-12-28T13:28:05.295Z,96.90
2022-12-28T13:30:41.038Z,96.66
2022-12-28T13:33:22.895Z,96.38
2022-12-28T13:35:51.417Z,97.07
2022-12-28T13:38:19.911Z,97.31
2022-12-28T13:40:53.739Z,97.51
2022-12-28T13:43:56.510Z,98.22
2022-12-28T13:46:28.729Z,98.30
2022-12-28T13:49:00.352Z,98.27
2022-12-28T13:51:29.272Z,99.12
2022-12-28T13:54:02.376Z,98.78
2022-12-28T13:56:42.321Z,98.50
2022-12-28T13:59:15.350Z,98.70
2022-12-28T14:01:56.177Z,98.78
2022-12-28T14:04:52.277Z,98.72
2022-12-28T14:07:18.224Z,98.68
2022-12-28T14:09:47.860Z,98.10
2022-12-28T14:12:17.520Z,98.24
2022-12-28T14:14:50.750Z,98.28
2022-12-28T14:17:20.106Z,98.09
2022-12-28T14:19:52.872Z,97.81
2022-12-28T14:22:30.202Z,97.97
2022-12-28T14:25:11.478Z,97.22
2022-12-28T14:28:07.861Z,96.20
2022-12-28T14:30:44.740Z,96.20
2022-12-28T14:33:24.983Z,95.85
2022-12-28T14:35:58.195Z,96.20
2022-12-28T14:38:33.649Z,95.81
2022-12-28T14:41:04.160Z,95.87
2022-12-28T14:43:41.525Z,95.79
2022-12-28T14:46:32.433Z,96.06
2022-12-28T14:49:29.948Z,96.10
2022-12-28T14:52:10.103Z,95.92
2022-12-28T14:54:48.545Z,95.88
2022-12-28T14:57:33.701Z,95.81
2022-12-28T15:00:21.770Z,95.57
2022-12-28T15:02:51.093Z,95.56
2022-12-28T15:05:55.432Z,95.25
2022-12-28T15:08:24.009Z,95.63
2022-12-28T15:10:55.727Z,95.60
2022-12-28T15:13:25.874Z,95.66
2022-12-28T15:16:07.445Z,95.71
2022-12-28T15:18:35.683Z,95.80
2022-12-28T15:21:07.320Z,95.73
2022-12-28T15:23:35.759Z,95.85
2022-12-28T15:26:11.825Z,95.56
2022-12-28T15:28:40.968Z,95.55
2022-12-28T15:31:12.588Z,95.71
2022-12-28T15:33:41.008Z,95.52
2022-12-28T15:36:17.813Z,95.52
2022-12-28T15:39:00.339Z,95.43
2022-12-28T15:41:48.009Z,95.98
2022-12-28T15:44:19.339Z,96.50
2022-12-28T15:46:50.793Z,96.89
2022-12-28T15:49:19.997Z,97.23
2022-12-28T15:51:48.452Z,97.44
2022-12-28T15:54:16.766Z,98.17
2022-12-28T15:56:45.243Z,98.77
2022-12-28T15:59:15.781Z,99.44
2022-12-28T16:01:45.938Z,100.00
2022-12-28T16:04:15.187Z,100.00
2022-12-28T16:06:44.952Z,100.00
2022-12-28T16:09:15.039Z,100.00
2022-12-28T16:11:43.818Z,100.00
2022-12-28T16:14:17.525Z,100.00
2022-12-28T16:16:54.251Z,100.00
2022-12-28T16:19:23.007Z,99.09
2022-12-28T16:22:00.716Z,97.83
2022-12-28T16:24:41.320Z,97.46
2022-12-28T16:27:12.792Z,97.63
2022-12-28T16:29:41.202Z,98.35
2022-12-28T16:32:12.720Z,96.97
2022-12-28T16:34:40.612Z,95.34
2022-12-28T16:37:11.877Z,96.60
2022-12-28T16:39:43.358Z,97.81
2022-12-28T16:42:12.658Z,100.00
2022-12-28T16:44:41.182Z,100.00
2022-12-28T16:47:47.817Z,100.00
2022-12-28T16:50:42.951Z,96.72
2022-12-28T16:53:41.572Z,90.48
2022-12-28T17:00:09.910Z,90.51
2022-12-28T17:02:41.302Z,90.39
2022-12-28T17:05:48.139Z,90.64
2022-12-28T17:08:42.401Z,92.35
2022-12-28T17:11:14.026Z,91.01
2022-12-28T17:13:43.574Z,88.88
2022-12-28T17:16:46.280Z,89.05
2022-12-28T17:19:43.845Z,86.11
2022-12-28T17:22:12.285Z,88.16
2022-12-28T17:24:44.337Z,91.45
2022-12-28T17:27:42.188Z,87.71
2022-12-28T17:30:34.155Z,85.28
2022-12-28T17:33:12.519Z,87.10
2022-12-28T17:35:42.946Z,88.07
2022-12-28T17:42:41.064Z,83.79
2022-12-28T17:45:44.937Z,81.51
2022-12-28T17:48:45.919Z,82.16
2022-12-28T17:51:42.991Z,88.36
2022-12-28T17:55:25.588Z,89.84
2022-12-28T17:57:44.702Z,86.37
2022-12-28T18:00:45.291Z,82.70
2022-12-28T18:03:42.597Z,82.04
2022-12-28T18:06:12.947Z,82.18
2022-12-28T18:08:44.606Z,81.16
2022-12-28T18:11:42.717Z,82.37
2022-12-28T18:14:40.830Z,80.77
2022-12-28T18:17:12.396Z,79.44
2022-12-28T18:19:43.602Z,80.90
2022-12-28T18:22:17.857Z,82.01
2022-12-28T18:24:46.124Z,80.80
2022-12-28T18:27:47.074Z,83.06
2022-12-28T18:30:35.488Z,80.79
2022-12-28T18:36:21.838Z,81.17
2022-12-28T18:38:50.663Z,83.00
2022-12-28T18:41:34.173Z,80.58
2022-12-28T18:44:08.757Z,81.15
2022-12-28T18:46:37.266Z,81.92
2022-12-28T18:49:23.253Z,79.48
2022-12-28T18:51:51.778Z,81.20
2022-12-28T18:54:44.245Z,79.96
2022-12-28T18:57:12.562Z,80.49
2022-12-28T18:59:43.614Z,80.84
2022-12-28T19:02:19.433Z,79.16
2022-12-28T19:04:48.829Z,79.29
2022-12-28T19:07:24.028Z,79.35
2022-12-28T19:10:13.014Z,80.04
2022-12-28T19:12:45.173Z,79.08
2022-12-28T19:15:38.740Z,78.66
2022-12-28T19:18:47.337Z,78.98
2022-12-28T19:21:35.211Z,79.79
2022-12-28T19:24:21.816Z,77.39
2022-12-28T19:26:50.340Z,79.42
2022-12-28T19:29:53.641Z,80.84
2022-12-28T19:32:22.174Z,79.49
2022-12-28T19:34:50.548Z,78.34
2022-12-28T19:37:27.952Z,78.83
2022-12-28T19:39:57.952Z,79.08
2022-12-28T19:42:45.570Z,79.45
2022-12-28T19:45:20.754Z,79.44
2022-12-28T19:47:49.023Z,80.66
2022-12-28T19:56:13.537Z,81.83
2022-12-28T19:58:46.398Z,81.56
2022-12-28T20:01:18.993Z,79.38
2022-12-28T20:03:49.230Z,79.75
2022-12-28T20:06:25.549Z,78.48
2022-12-28T20:08:57.771Z,79.67
2022-12-28T20:11:26.641Z,79.45
2022-12-28T20:16:45.479Z,79.40
2022-12-28T20:19:17.253Z,79.53
2022-12-28T20:21:50.287Z,80.38
2022-12-28T20:24:46.440Z,80.88
2022-12-28T20:27:58.128Z,81.50
2022-12-28T20:34:45.530Z,81.53
2022-12-28T20:37:53.213Z,81.32
2022-12-28T20:40:25.652Z,81.76
2022-12-28T20:54:16.570Z,82.73
2022-12-28T20:56:55.125Z,83.49
2022-12-28T20:59:48.228Z,84.21
2022-12-28T21:02:31.958Z,84.13
2022-12-28T21:05:47.460Z,84.00
2022-12-28T21:08:18.549Z,83.24
2022-12-28T21:10:52.123Z,83.00
2022-12-28T21:13:26.270Z,83.13
2022-12-28T21:18:50.640Z,83.14
2022-12-28T21:21:47.236Z,82.52
2022-12-28T21:24:22.941Z,83.41
2022-12-28T21:26:51.313Z,83.62
2022-12-28T21:29:52.200Z,84.38
2022-12-28T21:35:33.902Z,84.15
2022-12-28T22:30:37.658Z,80.69
2022-12-28T22:35:53.394Z,76.18
2022-12-28T22:38:54.739Z,76.93
2022-12-28T22:41:30.098Z,76.15
2022-12-28T22:45:08.441Z,78.96
2022-12-28T22:52:43.330Z,74.68
2022-12-28T23:00:54.666Z,76.43
2022-12-28T23:07:22.366Z,76.11
2022-12-28T23:11:20.848Z,75.50
2022-12-28T23:17:00.349Z,76.11
2022-12-28T23:22:59.632Z,76.49
2022-12-28T23:29:01.811Z,77.80
2022-12-28T23:36:03.411Z,77.90
2022-12-28T23:38:55.452Z,77.79
2022-12-28T23:41:51.154Z,77.67
2022-12-28T23:44:52.528Z,77.21
2022-12-28T23:47:24.577Z,76.71
2022-12-28T23:49:58.225Z,75.04
2022-12-28T23:52:59.630Z,73.91
2022-12-28T23:56:02.938Z,73.47
2022-12-28T23:58:52.436Z,72.66
